createdAt,value
2018-03-29T00:02:15.185Z,5.75
2018-03-29T00:04:43.670Z,5.73
2018-03-29T00:07:12.174Z,5.74
2018-03-29T00:09:40.677Z,5.80
2018-03-29T00:12:09.138Z,5.77
2018-03-29T00:14:37.638Z,5.64
2018-03-29T00:17:06.102Z,5.74
2018-03-29T00:19:34.598Z,5.47
2018-03-29T00:22:03.052Z,5.63
2018-03-29T00:24:31.550Z,5.68
2018-03-29T00:27:00.015Z,5.65
2018-03-29T00:29:28.506Z,5.68
2018-03-29T00:31:56.978Z,5.67
2018-03-29T00:34:25.505Z,5.57
2018-03-29T00:36:53.965Z,5.63
2018-03-29T00:39:22.462Z,5.48
2018-03-29T00:41:50.934Z,5.35
2018-03-29T00:44:19.398Z,5.29
2018-03-29T00:46:48.845Z,5.28
2018-03-29T00:49:17.348Z,5.42
2018-03-29T00:51:45.810Z,5.33
2018-03-29T00:54:14.301Z,5.39
2018-03-29T00:56:42.778Z,5.38
2018-03-29T00:59:11.285Z,5.41
2018-03-29T01:01:39.806Z,5.43
2018-03-29T01:04:08.274Z,5.33
2018-03-29T01:06:36.746Z,5.40
2018-03-29T01:09:05.305Z,5.30
2018-03-29T01:11:33.818Z,5.36
2018-03-29T01:14:02.338Z,5.33
2018-03-29T01:16:30.801Z,5.36
2018-03-29T01:18:59.321Z,5.40
2018-03-29T01:21:27.782Z,5.45
2018-03-29T01:23:56.237Z,5.40
2018-03-29T01:26:24.730Z,5.31
2018-03-29T01:28:53.225Z,5.11
2018-03-29T01:31:21.685Z,5.12
2018-03-29T01:33:50.186Z,5.03
2018-03-29T01:36:18.677Z,5.02
2018-03-29T01:38:47.154Z,5.01
2018-03-29T01:41:15.642Z,5.02
2018-03-29T01:43:44.110Z,4.96
2018-03-29T01:46:12.618Z,4.92
2018-03-29T01:48:41.069Z,4.82
2018-03-29T01:51:09.526Z,4.62
2018-03-29T01:53:38.022Z,4.66
2018-03-29T01:56:06.517Z,4.72
2018-03-29T01:58:35.028Z,4.58
2018-03-29T02:01:03.497Z,4.41
2018-03-29T02:03:32.010Z,4.31
2018-03-29T02:06:00.518Z,4.37
2018-03-29T02:08:28.994Z,4.36
2018-03-29T02:10:57.455Z,4.34
2018-03-29T02:13:25.946Z,4.33
2018-03-29T02:15:54.461Z,4.34
2018-03-29T02:18:23.747Z,4.34
2018-03-29T02:20:52.202Z,4.40
2018-03-29T02:23:20.697Z,4.37
2018-03-29T02:25:49.172Z,4.32
2018-03-29T02:28:17.674Z,4.29
2018-03-29T02:30:46.134Z,4.16
2018-03-29T02:33:14.591Z,4.14
2018-03-29T02:35:43.096Z,4.11
2018-03-29T02:38:11.580Z,4.15
2018-03-29T02:40:40.085Z,4.18
2018-03-29T02:43:08.763Z,4.14
2018-03-29T02:45:37.379Z,4.03
2018-03-29T02:48:05.863Z,3.83
2018-03-29T02:50:34.385Z,3.62
2018-03-29T02:53:02.904Z,3.54
2018-03-29T02:55:31.370Z,3.46
2018-03-29T02:57:59.891Z,3.29
2018-03-29T03:00:28.350Z,3.24
2018-03-29T03:02:57.029Z,3.20
2018-03-29T03:05:25.810Z,3.14
2018-03-29T03:07:54.352Z,3.27
2018-03-29T03:10:23.001Z,3.22
2018-03-29T03:12:51.533Z,2.97
2018-03-29T03:15:19.994Z,2.90
2018-03-29T03:17:48.486Z,2.90
2018-03-29T03:20:17.767Z,2.95
2018-03-29T03:22:46.550Z,2.94
2018-03-29T03:25:15.244Z,3.10
2018-03-29T03:27:43.997Z,3.21
2018-03-29T03:30:12.651Z,3.18
2018-03-29T03:32:41.310Z,3.04
2018-03-29T03:35:10.033Z,2.98
2018-03-29T03:37:38.578Z,2.98
2018-03-29T03:40:07.318Z,3.08
2018-03-29T03:42:36.035Z,3.13
2018-03-29T03:45:04.574Z,3.17
2018-03-29T03:47:33.048Z,3.01
2018-03-29T03:50:01.700Z,3.06
2018-03-29T03:52:30.311Z,3.10
2018-03-29T03:54:58.794Z,2.97
2018-03-29T03:57:27.298Z,2.93
2018-03-29T03:59:55.754Z,2.86
2018-03-29T04:02:24.452Z,2.89
2018-03-29T04:04:52.959Z,2.98
2018-03-29T04:07:21.649Z,3.01
2018-03-29T04:09:50.206Z,3.02
2018-03-29T04:12:18.681Z,2.95
2018-03-29T04:14:47.827Z,3.08
2018-03-29T04:17:16.361Z,2.98
2018-03-29T04:19:44.830Z,3.01
2018-03-29T04:22:13.323Z,3.03
2018-03-29T04:24:41.814Z,3.02
2018-03-29T04:27:10.346Z,3.19
2018-03-29T04:29:38.869Z,3.05
2018-03-29T04:32:07.369Z,3.13
2018-03-29T04:34:35.830Z,2.98
2018-03-29T04:37:04.346Z,3.08
2018-03-29T04:39:32.817Z,3.13
2018-03-29T04:42:01.321Z,3.13
2018-03-29T04:44:29.786Z,3.20
2018-03-29T04:46:58.282Z,3.16
2018-03-29T04:49:26.802Z,3.04
2018-03-29T04:51:55.284Z,3.13
2018-03-29T04:54:23.760Z,3.17
2018-03-29T04:56:52.271Z,3.28
2018-03-29T04:59:20.774Z,3.24
2018-03-29T05:01:49.274Z,3.20
2018-03-29T05:04:17.738Z,3.11
2018-03-29T05:06:46.238Z,3.18
2018-03-29T05:09:14.711Z,3.20
2018-03-29T05:11:43.214Z,3.22
2018-03-29T05:14:11.685Z,2.96
2018-03-29T05:16:40.200Z,3.23
2018-03-29T05:19:08.705Z,3.26
2018-03-29T05:21:37.189Z,3.20
2018-03-29T05:24:05.721Z,3.34
2018-03-29T05:26:39.157Z,3.34
2018-03-29T05:29:07.658Z,3.37
2018-03-29T05:31:36.154Z,3.34
2018-03-29T05:34:04.651Z,3.41
2018-03-29T05:36:33.150Z,3.57
2018-03-29T05:39:01.687Z,3.72
2018-03-29T05:41:30.279Z,3.87
2018-03-29T05:43:58.786Z,4.09
2018-03-29T05:46:27.265Z,4.17
2018-03-29T05:48:55.782Z,4.42
2018-03-29T05:51:24.262Z,4.59
2018-03-29T05:53:52.729Z,4.68
2018-03-29T05:56:21.245Z,4.82
2018-03-29T05:58:49.702Z,4.95
2018-03-29T06:01:18.167Z,4.94
2018-03-29T06:03:46.682Z,5.24
2018-03-29T06:06:15.195Z,5.50
2018-03-29T06:08:43.729Z,5.79
2018-03-29T06:11:12.233Z,6.13
2018-03-29T06:13:40.721Z,6.17
2018-03-29T06:16:09.270Z,6.13
2018-03-29T06:18:37.835Z,6.42
2018-03-29T06:21:06.330Z,6.60
2018-03-29T06:23:34.858Z,6.85
2018-03-29T06:26:03.339Z,7.02
2018-03-29T06:28:31.890Z,7.32
2018-03-29T06:31:00.346Z,7.49
2018-03-29T06:33:28.859Z,7.63
2018-03-29T06:35:57.362Z,8.03
2018-03-29T06:38:25.888Z,8.24
2018-03-29T06:40:54.345Z,8.27
2018-03-29T06:43:22.811Z,8.54
2018-03-29T06:45:51.333Z,8.67
2018-03-29T06:48:19.920Z,9.02
2018-03-29T06:50:48.392Z,9.40
2018-03-29T06:53:16.930Z,9.59
2018-03-29T06:55:45.434Z,9.95
2018-03-29T06:58:13.930Z,10.21
2018-03-29T07:00:42.473Z,10.49
2018-03-29T07:03:10.993Z,10.48
2018-03-29T07:05:39.467Z,10.67
2018-03-29T07:08:07.982Z,10.70
2018-03-29T07:10:36.490Z,10.83
2018-03-29T07:13:04.998Z,10.92
2018-03-29T07:15:33.457Z,11.12
2018-03-29T07:18:02.013Z,11.14
2018-03-29T07:20:31.265Z,11.20
2018-03-29T07:22:59.871Z,11.23
2018-03-29T07:25:28.403Z,11.38
2018-03-29T07:27:56.892Z,11.95
2018-03-29T07:30:25.394Z,12.00
2018-03-29T07:32:53.875Z,12.21
2018-03-29T07:35:22.408Z,12.35
2018-03-29T07:37:50.881Z,12.56
2018-03-29T07:40:19.401Z,12.69
2018-03-29T07:42:47.957Z,12.47
2018-03-29T07:45:16.510Z,12.55
2018-03-29T07:47:45.012Z,12.68
2018-03-29T07:50:13.522Z,12.52
2018-03-29T07:52:41.986Z,12.67
2018-03-29T07:55:10.493Z,12.93
2018-03-29T07:57:38.977Z,12.81
2018-03-29T08:00:07.507Z,12.78
2018-03-29T08:02:36.071Z,12.87
2018-03-29T08:05:04.610Z,12.89
2018-03-29T08:07:33.118Z,13.06
2018-03-29T08:10:01.587Z,13.28
2018-03-29T08:12:30.149Z,13.23
2018-03-29T08:14:58.630Z,13.43
2018-03-29T08:17:27.146Z,13.46
2018-03-29T08:19:55.610Z,13.69
2018-03-29T08:22:24.078Z,13.63
2018-03-29T08:24:52.588Z,13.62
2018-03-29T08:27:21.118Z,13.85
2018-03-29T08:29:49.634Z,13.79
2018-03-29T08:32:18.110Z,13.89
2018-03-29T08:34:46.630Z,13.99
2018-03-29T08:37:15.187Z,14.09
2018-03-29T08:39:43.706Z,14.07
2018-03-29T08:42:12.206Z,14.19
2018-03-29T08:44:40.720Z,14.35
2018-03-29T08:47:09.199Z,14.27
2018-03-29T08:49:37.732Z,14.33
2018-03-29T08:52:06.241Z,14.44
2018-03-29T08:54:34.750Z,14.66
2018-03-29T08:57:03.231Z,14.77
2018-03-29T08:59:31.714Z,14.80
2018-03-29T09:02:00.224Z,14.83
2018-03-29T09:04:28.694Z,14.85
2018-03-29T09:06:57.197Z,14.94
2018-03-29T09:09:25.719Z,15.04
2018-03-29T09:11:54.210Z,15.09
2018-03-29T09:17:02.798Z,15.00
2018-03-29T09:19:31.294Z,15.10
2018-03-29T09:21:59.827Z,15.05
2018-03-29T09:24:28.352Z,15.15
2018-03-29T09:26:56.886Z,15.19
2018-03-29T09:29:25.395Z,15.20
2018-03-29T09:31:53.859Z,15.19
2018-03-29T09:34:22.358Z,15.15
2018-03-29T09:36:50.882Z,15.24
2018-03-29T09:39:19.390Z,15.40
2018-03-29T09:41:47.910Z,15.45
2018-03-29T09:44:16.370Z,15.20
2018-03-29T09:46:44.865Z,15.23
2018-03-29T09:49:13.434Z,15.39
2018-03-29T09:51:41.966Z,15.48
2018-03-29T09:54:10.466Z,15.55
2018-03-29T09:56:38.962Z,15.34
2018-03-29T09:59:07.426Z,15.67
2018-03-29T10:01:36.003Z,15.71
2018-03-29T10:04:10.138Z,15.67
2018-03-29T10:06:44.086Z,15.79
2018-03-29T10:09:12.755Z,15.75
2018-03-29T10:11:41.273Z,15.64
2018-03-29T10:14:09.809Z,15.70
2018-03-29T10:16:38.408Z,15.56
2018-03-29T10:19:06.983Z,15.71
2018-03-29T10:21:35.438Z,15.81
2018-03-29T10:24:03.940Z,15.85
2018-03-29T10:26:32.436Z,15.88
2018-03-29T10:29:00.949Z,15.70
2018-03-29T10:31:29.457Z,15.92
2018-03-29T10:33:57.978Z,15.94
2018-03-29T10:36:26.485Z,15.96
2018-03-29T10:38:54.987Z,15.90
2018-03-29T10:41:23.488Z,15.84
2018-03-29T10:43:51.960Z,15.79
2018-03-29T10:46:20.478Z,15.73
2018-03-29T10:48:48.976Z,15.70
2018-03-29T10:51:17.663Z,15.87
2018-03-29T10:53:46.122Z,15.95
2018-03-29T10:56:14.627Z,15.98
2018-03-29T10:58:43.207Z,16.08
2018-03-29T11:01:11.663Z,15.95
2018-03-29T11:03:40.276Z,15.90
2018-03-29T11:06:08.744Z,16.02
2018-03-29T11:08:37.244Z,16.18
2018-03-29T11:11:05.702Z,16.22
2018-03-29T11:13:34.210Z,16.27
2018-03-29T11:16:02.682Z,16.10
2018-03-29T11:18:31.169Z,16.10
2018-03-29T11:20:59.630Z,16.14
2018-03-29T11:23:28.109Z,16.06
2018-03-29T11:25:56.561Z,16.17
2018-03-29T11:28:25.055Z,16.31
2018-03-29T11:30:53.560Z,16.27
2018-03-29T11:33:22.015Z,16.40
2018-03-29T11:35:50.498Z,16.36
2018-03-29T11:38:18.950Z,16.27
2018-03-29T11:40:47.460Z,16.30
2018-03-29T11:43:15.940Z,16.40
2018-03-29T11:45:44.426Z,16.36
2018-03-29T11:48:12.909Z,16.41
2018-03-29T11:50:41.370Z,16.26
2018-03-29T11:53:09.858Z,16.36
2018-03-29T11:55:38.312Z,16.44
2018-03-29T11:58:06.810Z,16.41
2018-03-29T12:00:35.275Z,16.43
2018-03-29T12:03:03.826Z,16.57
2018-03-29T12:05:32.328Z,16.64
2018-03-29T12:08:00.883Z,16.58
2018-03-29T12:10:29.461Z,16.57
2018-03-29T12:12:57.921Z,16.80
2018-03-29T12:15:26.413Z,16.80
2018-03-29T12:17:54.885Z,16.79
2018-03-29T12:20:23.404Z,16.67
2018-03-29T12:22:51.876Z,16.77
2018-03-29T12:25:20.335Z,16.72
2018-03-29T12:27:48.842Z,16.72
2018-03-29T12:30:17.431Z,16.62
2018-03-29T12:32:45.937Z,16.68
2018-03-29T12:35:14.438Z,16.72
2018-03-29T12:37:42.894Z,16.79
2018-03-29T12:40:11.349Z,16.94
2018-03-29T12:42:39.830Z,17.10
2018-03-29T12:45:08.350Z,17.18
2018-03-29T12:47:36.858Z,17.23
2018-03-29T12:50:05.370Z,17.22
2018-03-29T12:52:33.852Z,17.26
2018-03-29T12:55:14.078Z,17.31
2018-03-29T12:57:54.158Z,17.42
2018-03-29T13:00:22.622Z,17.36
2018-03-29T13:02:51.174Z,17.43
2018-03-29T13:05:19.678Z,17.46
2018-03-29T13:07:48.209Z,17.39
2018-03-29T13:10:16.672Z,17.55
2018-03-29T13:12:45.123Z,17.54
2018-03-29T13:15:13.606Z,17.52
2018-03-29T13:17:42.078Z,17.58
2018-03-29T13:20:10.599Z,17.60
2018-03-29T13:22:39.129Z,17.63
2018-03-29T13:25:07.712Z,17.67
2018-03-29T13:27:36.219Z,17.79
2018-03-29T13:30:04.726Z,17.70
2018-03-29T13:32:33.195Z,17.68
2018-03-29T13:35:01.685Z,17.73
2018-03-29T13:37:30.169Z,17.68
2018-03-29T13:39:58.621Z,17.67
2018-03-29T13:42:27.125Z,17.74
2018-03-29T13:44:55.629Z,17.75
2018-03-29T13:47:24.090Z,17.74
2018-03-29T13:49:52.501Z,17.84
2018-03-29T13:52:20.982Z,17.85
2018-03-29T13:54:49.461Z,17.91
2018-03-29T13:57:17.954Z,17.83
2018-03-29T13:59:46.631Z,17.65
2018-03-29T14:02:15.119Z,17.89
2018-03-29T14:04:43.579Z,17.93
2018-03-29T14:07:12.061Z,17.96
2018-03-29T14:09:40.514Z,17.79
2018-03-29T14:12:09.008Z,17.91
2018-03-29T14:14:37.470Z,17.93
2018-03-29T14:17:05.962Z,17.99
2018-03-29T14:19:35.799Z,17.91
2018-03-29T14:22:04.429Z,17.90
2018-03-29T14:24:33.152Z,17.93
2018-03-29T14:27:01.727Z,17.84
2018-03-29T14:29:30.200Z,17.81
2018-03-29T14:31:58.711Z,17.83
2018-03-29T14:34:27.177Z,17.73
2018-03-29T14:36:55.691Z,17.69
2018-03-29T14:39:24.212Z,17.71
2018-03-29T14:41:52.674Z,17.71
2018-03-29T14:44:21.129Z,17.66
2018-03-29T14:46:49.676Z,17.57
2018-03-29T14:49:18.114Z,17.65
2018-03-29T14:51:46.642Z,17.59
2018-03-29T14:54:15.141Z,17.55
2018-03-29T14:56:43.641Z,17.57
2018-03-29T14:59:12.108Z,17.58
2018-03-29T15:01:40.605Z,17.51
2018-03-29T15:04:09.090Z,17.46
2018-03-29T15:06:37.555Z,17.45
2018-03-29T15:09:06.103Z,17.45
2018-03-29T15:11:34.554Z,17.39
2018-03-29T15:14:03.046Z,17.39
2018-03-29T15:16:31.542Z,17.45
2018-03-29T15:19:00.021Z,17.38
2018-03-29T15:21:28.471Z,17.28
2018-03-29T15:23:56.958Z,17.30
2018-03-29T15:26:25.510Z,17.15
2018-03-29T15:28:53.980Z,17.15
2018-03-29T15:31:22.434Z,17.21
2018-03-29T15:33:50.941Z,17.16
2018-03-29T15:36:19.434Z,17.13
2018-03-29T15:38:47.899Z,17.02
2018-03-29T15:41:16.392Z,16.99
2018-03-29T15:43:44.891Z,16.91
2018-03-29T15:46:13.385Z,16.85
2018-03-29T15:48:41.870Z,16.83
2018-03-29T15:51:10.370Z,16.84
2018-03-29T15:53:38.834Z,16.79
2018-03-29T15:56:07.329Z,16.75
2018-03-29T15:58:35.782Z,16.70
2018-03-29T16:01:04.287Z,16.61
2018-03-29T16:03:32.750Z,16.55
2018-03-29T16:06:01.205Z,16.51
2018-03-29T16:08:29.693Z,16.51
2018-03-29T16:10:58.182Z,16.46
2018-03-29T16:13:26.667Z,16.36
2018-03-29T16:15:55.125Z,16.20
2018-03-29T16:18:24.503Z,16.25
2018-03-29T16:20:52.981Z,16.17
2018-03-29T16:23:21.488Z,16.10
2018-03-29T16:25:49.980Z,16.01
2018-03-29T16:28:18.463Z,15.91
2018-03-29T16:30:46.962Z,15.83
2018-03-29T16:33:15.428Z,15.68
2018-03-29T16:35:43.922Z,15.58
2018-03-29T16:38:12.373Z,15.43
2018-03-29T16:40:40.878Z,15.39
2018-03-29T16:43:09.371Z,15.27
2018-03-29T16:45:37.866Z,15.17
2018-03-29T16:48:06.373Z,15.07
2018-03-29T16:50:34.834Z,14.99
2018-03-29T16:53:03.345Z,14.81
2018-03-29T16:55:31.849Z,14.76
2018-03-29T16:58:00.327Z,14.68
2018-03-29T17:00:28.844Z,14.58
2018-03-29T17:02:57.356Z,14.52
2018-03-29T17:05:25.854Z,14.40
2018-03-29T17:07:54.314Z,14.26
2018-03-29T17:10:22.774Z,14.18
2018-03-29T17:12:51.282Z,14.19
2018-03-29T17:15:19.749Z,14.10
2018-03-29T17:17:48.245Z,14.01
2018-03-29T17:20:16.758Z,13.93
2018-03-29T17:22:45.263Z,13.77
2018-03-29T17:25:13.758Z,13.73
2018-03-29T17:27:42.226Z,13.54
2018-03-29T17:30:10.722Z,13.54
2018-03-29T17:32:39.177Z,13.48
2018-03-29T17:35:07.680Z,13.39
2018-03-29T17:37:36.138Z,13.37
2018-03-29T17:40:04.590Z,13.32
2018-03-29T17:42:33.078Z,13.26
2018-03-29T17:45:01.562Z,13.20
2018-03-29T17:47:30.057Z,13.11
2018-03-29T17:49:58.578Z,13.03
2018-03-29T17:52:27.038Z,12.99
2018-03-29T17:54:55.554Z,12.92
2018-03-29T17:57:24.017Z,12.83
2018-03-29T17:59:52.522Z,12.83
2018-03-29T18:02:21.046Z,12.75
2018-03-29T18:04:49.517Z,12.67
2018-03-29T18:07:18.006Z,12.59
2018-03-29T18:09:46.478Z,12.52
2018-03-29T18:12:14.969Z,12.49
2018-03-29T18:14:43.434Z,12.45
2018-03-29T18:17:11.954Z,12.44
2018-03-29T18:19:40.417Z,12.43
2018-03-29T18:22:08.917Z,12.43
2018-03-29T18:24:37.406Z,12.38
2018-03-29T18:27:05.906Z,12.36
2018-03-29T18:29:34.416Z,12.36
2018-03-29T18:32:02.878Z,12.36
2018-03-29T18:34:31.385Z,12.32
2018-03-29T18:36:59.849Z,12.34
2018-03-29T18:39:28.366Z,12.31
2018-03-29T18:41:56.832Z,12.34
2018-03-29T18:44:25.327Z,12.26
2018-03-29T18:46:53.929Z,12.27
2018-03-29T18:49:22.393Z,12.08
2018-03-29T18:51:50.853Z,12.15
2018-03-29T18:54:19.348Z,12.06
2018-03-29T18:56:47.855Z,12.08
2018-03-29T18:59:16.353Z,12.11
2018-03-29T19:01:44.834Z,12.07
2018-03-29T19:04:13.345Z,12.03
2018-03-29T19:06:41.823Z,11.95
2018-03-29T19:09:10.293Z,11.95
2018-03-29T19:11:38.794Z,11.92
2018-03-29T19:14:07.254Z,11.91
2018-03-29T19:16:35.757Z,11.90
2018-03-29T19:19:04.262Z,11.89
2018-03-29T19:21:32.724Z,11.77
2018-03-29T19:24:01.226Z,11.79
2018-03-29T19:26:29.694Z,11.76
2018-03-29T19:28:58.198Z,11.75
2018-03-29T19:31:26.698Z,11.70
2018-03-29T19:33:55.158Z,11.66
2018-03-29T19:36:23.653Z,11.66
2018-03-29T19:38:52.142Z,11.66
2018-03-29T19:41:20.643Z,11.61
2018-03-29T19:43:49.110Z,11.65
2018-03-29T19:46:17.601Z,11.57
2018-03-29T19:48:46.065Z,11.56
2018-03-29T19:51:14.610Z,11.47
2018-03-29T19:53:43.070Z,11.32
2018-03-29T19:56:11.579Z,11.29
2018-03-29T19:58:40.070Z,11.17
2018-03-29T20:01:08.577Z,11.23
2018-03-29T20:03:37.072Z,11.14
2018-03-29T20:06:05.562Z,11.11
2018-03-29T20:08:34.077Z,11.20
2018-03-29T20:11:02.566Z,11.21
2018-03-29T20:13:31.084Z,11.00
2018-03-29T20:15:59.598Z,10.92
2018-03-29T20:18:28.080Z,10.84
2018-03-29T20:20:56.603Z,10.94
2018-03-29T20:23:25.085Z,10.91
2018-03-29T20:25:53.556Z,10.90
2018-03-29T20:28:22.069Z,10.87
2018-03-29T20:30:50.580Z,10.78
2018-03-29T20:33:19.077Z,10.72
2018-03-29T20:35:47.541Z,10.71
2018-03-29T20:38:15.997Z,10.60
2018-03-29T20:40:44.541Z,10.69
2018-03-29T20:43:13.010Z,10.57
2018-03-29T20:45:41.521Z,10.66
2018-03-29T20:48:09.994Z,10.65
2018-03-29T20:50:38.506Z,10.56
2018-03-29T20:53:07.020Z,10.49
2018-03-29T20:55:35.510Z,10.41
2018-03-29T20:58:03.974Z,10.39
2018-03-29T21:00:32.485Z,10.37
2018-03-29T21:03:00.998Z,10.21
2018-03-29T21:05:29.493Z,10.20
2018-03-29T21:07:57.998Z,10.24
2018-03-29T21:10:26.478Z,10.19
2018-03-29T21:12:55.152Z,10.12
2018-03-29T21:15:23.630Z,10.07
2018-03-29T21:17:52.168Z,10.04
2018-03-29T21:20:20.635Z,9.99
2018-03-29T21:22:49.120Z,9.99
2018-03-29T21:25:17.613Z,9.94
2018-03-29T21:27:46.133Z,9.95
2018-03-29T21:30:14.590Z,9.94
2018-03-29T21:32:43.066Z,9.88
2018-03-29T21:35:11.587Z,9.91
2018-03-29T21:37:40.042Z,9.77
2018-03-29T21:40:08.569Z,9.71
2018-03-29T21:42:37.031Z,9.64
2018-03-29T21:45:05.598Z,9.46
2018-03-29T21:47:34.123Z,9.44
2018-03-29T21:50:02.587Z,9.45
2018-03-29T21:52:31.122Z,9.47
2018-03-29T21:54:59.597Z,9.36
2018-03-29T21:57:28.133Z,9.21
2018-03-29T21:59:56.591Z,9.24
2018-03-29T22:02:25.091Z,9.25
2018-03-29T22:04:53.566Z,9.22
2018-03-29T22:07:22.058Z,9.16
2018-03-29T22:09:50.518Z,9.10
2018-03-29T22:12:19.023Z,9.17
2018-03-29T22:14:47.509Z,9.11
2018-03-29T22:17:15.999Z,9.01
2018-03-29T22:19:44.494Z,9.02
2018-03-29T22:22:12.954Z,9.03
2018-03-29T22:24:41.463Z,9.00
2018-03-29T22:27:09.973Z,8.96
2018-03-29T22:29:38.466Z,9.03
2018-03-29T22:32:06.930Z,9.09
2018-03-29T22:34:35.424Z,9.11
2018-03-29T22:37:03.914Z,9.08
2018-03-29T22:39:32.366Z,9.00
2018-03-29T22:42:00.855Z,9.01
2018-03-29T22:44:29.345Z,8.91
2018-03-29T22:46:57.833Z,8.85
2018-03-29T22:49:26.337Z,8.80
2018-03-29T22:51:54.834Z,8.70
2018-03-29T22:54:23.289Z,8.69
2018-03-29T22:56:51.830Z,8.63
2018-03-29T22:59:20.338Z,8.61
2018-03-29T23:01:48.834Z,8.56
2018-03-29T23:04:17.322Z,8.46
2018-03-29T23:06:45.839Z,8.40
2018-03-29T23:09:14.309Z,8.34
2018-03-29T23:11:42.806Z,8.30
2018-03-29T23:14:11.263Z,8.28
2018-03-29T23:16:39.753Z,8.23
2018-03-29T23:19:08.245Z,8.24
2018-03-29T23:21:36.706Z,8.25
2018-03-29T23:24:05.238Z,8.26
2018-03-29T23:26:33.742Z,8.20
2018-03-29T23:29:02.280Z,8.20
2018-03-29T23:31:30.726Z,8.14
2018-03-29T23:33:59.243Z,8.11
2018-03-29T23:36:27.733Z,8.11
2018-03-29T23:38:56.244Z,8.12
2018-03-29T23:41:24.735Z,8.09
2018-03-29T23:43:53.259Z,7.95
2018-03-29T23:46:21.747Z,7.88
2018-03-29T23:48:50.262Z,7.85
2018-03-29T23:51:18.726Z,7.82
2018-03-29T23:53:47.181Z,7.77
2018-03-29T23:56:15.709Z,7.71
2018-03-29T23:58:44.162Z,7.57
